createdAt,value
2023-05-12T00:01:20.080Z,7.10
2023-05-12T00:03:47.380Z,8.35
2023-05-12T00:06:14.563Z,8.80
2023-05-12T00:08:41.590Z,9.45
2023-05-12T00:11:08.688Z,8.38
2023-05-12T00:13:35.793Z,9.07
2023-05-12T00:16:03.625Z,9.23
2023-05-12T00:18:30.804Z,9.10
2023-05-12T00:20:58.264Z,8.75
2023-05-12T00:23:25.248Z,8.82
2023-05-12T00:25:52.297Z,8.50
2023-05-12T00:28:19.472Z,8.80
2023-05-12T00:30:46.500Z,9.07
2023-05-12T00:33:13.574Z,9.82
2023-05-12T00:35:40.530Z,9.93
2023-05-12T00:38:07.613Z,10.40
2023-05-12T00:40:34.616Z,9.93
2023-05-12T00:43:01.675Z,9.77
2023-05-12T00:45:32.175Z,10.13
2023-05-12T00:47:59.341Z,10.77
2023-05-12T00:50:26.635Z,10.80
2023-05-12T00:52:53.738Z,10.55
2023-05-12T00:55:21.122Z,10.00
2023-05-12T00:57:48.138Z,10.73
2023-05-12T01:00:15.312Z,10.40
2023-05-12T01:02:42.647Z,10.70
2023-05-12T01:05:10.188Z,11.18
2023-05-12T01:07:39.115Z,10.95
2023-05-12T01:10:18.009Z,10.45
2023-05-12T01:12:45.272Z,10.45
2023-05-12T01:15:13.163Z,10.60
2023-05-12T01:17:47.177Z,10.70
2023-05-12T01:20:16.919Z,11.52
2023-05-12T01:22:44.272Z,11.32
2023-05-12T01:25:13.108Z,11.80
2023-05-12T01:27:41.450Z,11.93
2023-05-12T01:30:09.910Z,13.02
2023-05-12T01:32:38.828Z,12.63
2023-05-12T01:35:06.202Z,13.30
2023-05-12T01:37:33.326Z,13.15
2023-05-12T01:40:00.440Z,12.50
2023-05-12T01:42:27.592Z,13.15
2023-05-12T01:44:54.558Z,13.20
2023-05-12T01:47:21.890Z,13.60
2023-05-12T01:49:49.105Z,13.68
2023-05-12T01:52:16.065Z,14.15
2023-05-12T01:54:43.207Z,13.25
2023-05-12T01:57:10.218Z,12.25
2023-05-12T01:59:37.375Z,14.90
2023-05-12T02:02:04.586Z,13.32
2023-05-12T02:04:31.595Z,13.07
2023-05-12T02:06:58.679Z,13.38
2023-05-12T02:09:25.704Z,13.90
2023-05-12T02:11:52.859Z,12.40
2023-05-12T02:14:19.928Z,12.02
2023-05-12T02:16:50.155Z,12.77
2023-05-12T02:19:17.127Z,14.43
2023-05-12T02:21:46.252Z,14.15
2023-05-12T02:24:14.904Z,15.43
2023-05-12T02:26:42.289Z,15.85
2023-05-12T02:29:10.544Z,15.02
2023-05-12T02:31:37.685Z,15.13
2023-05-12T02:34:06.653Z,15.55
2023-05-12T02:36:34.005Z,15.98
2023-05-12T02:39:01.098Z,15.82
2023-05-12T02:41:28.569Z,16.20
2023-05-12T02:43:55.520Z,17.08
2023-05-12T02:46:22.585Z,16.83
2023-05-12T02:48:49.616Z,18.05
2023-05-12T02:51:16.667Z,17.67
2023-05-12T02:53:43.631Z,16.60
2023-05-12T02:56:10.579Z,19.83
2023-05-12T02:58:37.737Z,20.73
2023-05-12T03:01:10.698Z,20.45
2023-05-12T03:03:39.088Z,20.38
2023-05-12T03:06:06.942Z,20.80
2023-05-12T03:08:34.051Z,19.63
2023-05-12T03:11:01.120Z,21.10
2023-05-12T03:13:28.068Z,20.85
2023-05-12T03:15:55.926Z,21.25
2023-05-12T03:18:22.996Z,19.60
2023-05-12T03:20:50.034Z,20.10
2023-05-12T03:23:17.227Z,19.60
2023-05-12T03:25:44.223Z,18.50
2023-05-12T03:28:11.702Z,19.20
2023-05-12T03:30:38.769Z,21.02
2023-05-12T03:33:05.807Z,20.85
2023-05-12T03:35:32.761Z,20.75
2023-05-12T03:37:59.808Z,23.08
2023-05-12T03:40:26.993Z,22.15
2023-05-12T03:42:54.004Z,20.60
2023-05-12T03:45:21.500Z,20.05
2023-05-12T03:47:48.676Z,22.60
2023-05-12T03:50:15.831Z,21.40
2023-05-12T03:52:42.838Z,20.77
2023-05-12T03:55:10.652Z,21.38
2023-05-12T03:57:38.343Z,20.95
2023-05-12T04:00:08.925Z,21.30
2023-05-12T04:02:35.938Z,21.20
2023-05-12T04:05:03.003Z,22.65
2023-05-12T04:07:30.020Z,22.90
2023-05-12T04:09:57.020Z,22.00
2023-05-12T04:12:24.296Z,21.33
2023-05-12T04:14:51.828Z,21.48
2023-05-12T04:17:21.564Z,22.30
2023-05-12T04:19:48.667Z,23.77
2023-05-12T04:22:15.777Z,22.85
2023-05-12T04:24:42.708Z,23.50
2023-05-12T04:27:09.784Z,22.90
2023-05-12T04:29:37.232Z,23.70
2023-05-12T04:32:04.540Z,24.48
2023-05-12T04:34:31.705Z,23.75
2023-05-12T04:36:58.634Z,23.77
2023-05-12T04:39:25.717Z,25.20
2023-05-12T04:41:52.701Z,24.40
2023-05-12T04:44:19.675Z,24.33
2023-05-12T04:46:46.661Z,25.75
2023-05-12T04:49:13.637Z,26.17
2023-05-12T04:51:43.075Z,25.25
2023-05-12T04:54:10.619Z,25.80
2023-05-12T04:56:37.863Z,25.73
2023-05-12T04:59:05.040Z,26.48
2023-05-12T05:01:32.216Z,25.95
2023-05-12T05:03:59.257Z,25.08
2023-05-12T05:06:26.309Z,25.73
2023-05-12T05:08:53.361Z,26.55
2023-05-12T05:11:22.014Z,25.92
2023-05-12T05:13:49.069Z,26.02
2023-05-12T05:16:16.140Z,26.17
2023-05-12T05:18:46.685Z,26.73
2023-05-12T05:21:16.927Z,28.38
2023-05-12T05:23:43.919Z,28.20
2023-05-12T05:26:10.985Z,26.05
2023-05-12T05:28:40.129Z,26.10
2023-05-12T05:31:07.727Z,26.27
2023-05-12T05:33:34.800Z,24.58
2023-05-12T05:36:01.973Z,23.85
2023-05-12T05:38:29.028Z,24.40
2023-05-12T05:40:56.165Z,24.52
2023-05-12T05:43:23.284Z,24.08
2023-05-12T05:45:50.850Z,24.92
2023-05-12T05:48:18.284Z,22.45
2023-05-12T05:50:45.423Z,23.05
2023-05-12T05:53:12.394Z,22.02
2023-05-12T05:55:39.431Z,21.00
2023-05-12T05:58:06.380Z,21.63
2023-05-12T06:00:33.373Z,20.17
2023-05-12T06:03:00.494Z,20.38
2023-05-12T06:05:27.729Z,20.20
2023-05-12T06:07:54.828Z,19.65
2023-05-12T06:10:22.403Z,18.67
2023-05-12T06:12:50.650Z,19.42
2023-05-12T06:15:18.892Z,17.95
2023-05-12T06:17:46.216Z,17.17
2023-05-12T06:20:13.664Z,17.63
2023-05-12T06:22:42.546Z,17.48
2023-05-12T06:25:09.837Z,16.48
2023-05-12T06:27:36.939Z,17.20
2023-05-12T06:30:04.508Z,16.23
2023-05-12T06:32:31.690Z,15.68
2023-05-12T06:34:59.064Z,15.90
2023-05-12T06:37:26.040Z,15.38
2023-05-12T06:39:53.101Z,14.85
2023-05-12T06:42:20.107Z,15.52
2023-05-12T06:44:47.152Z,14.80
2023-05-12T06:47:14.124Z,13.55
2023-05-12T06:49:41.140Z,13.73
2023-05-12T06:52:08.164Z,13.15
2023-05-12T06:54:35.210Z,12.68
2023-05-12T06:57:02.214Z,11.68
2023-05-12T06:59:29.276Z,12.02
2023-05-12T07:01:56.404Z,12.02
2023-05-12T07:04:24.515Z,11.18
2023-05-12T07:06:52.728Z,11.43
2023-05-12T07:09:19.982Z,11.38
2023-05-12T07:11:47.240Z,11.23
2023-05-12T07:14:14.251Z,11.25
2023-05-12T07:16:41.269Z,11.57
2023-05-12T07:19:09.777Z,11.27
2023-05-12T07:21:37.333Z,10.57
2023-05-12T07:24:06.285Z,9.77
2023-05-12T07:26:33.576Z,10.10
2023-05-12T07:29:01.332Z,10.32
2023-05-12T07:31:29.007Z,10.75
2023-05-12T07:33:56.208Z,10.20
2023-05-12T07:36:23.367Z,10.50
2023-05-12T07:38:50.441Z,9.95
2023-05-12T07:41:18.163Z,9.35
2023-05-12T07:43:45.700Z,8.85
2023-05-12T07:46:12.874Z,8.93
2023-05-12T07:48:40.587Z,8.18
2023-05-12T07:51:08.059Z,8.40
2023-05-12T07:53:35.626Z,8.30
2023-05-12T07:56:02.815Z,8.40
2023-05-12T07:58:30.062Z,8.25
2023-05-12T08:00:59.281Z,7.78
2023-05-12T08:03:26.615Z,7.95
2023-05-12T08:05:53.721Z,7.32
2023-05-12T08:08:20.756Z,6.72
2023-05-12T08:10:47.741Z,6.68
2023-05-12T08:13:14.752Z,6.07
2023-05-12T08:15:41.785Z,6.82
2023-05-12T08:18:09.107Z,6.60
2023-05-12T08:20:36.286Z,6.30
2023-05-12T08:23:03.298Z,6.60
2023-05-12T08:25:30.817Z,6.80
2023-05-12T08:27:59.503Z,6.82
2023-05-12T08:30:27.355Z,6.28
2023-05-12T08:32:57.473Z,7.18
2023-05-12T08:35:26.684Z,7.00
2023-05-12T08:37:53.842Z,6.40
2023-05-12T08:40:23.368Z,6.43
2023-05-12T08:43:18.587Z,6.50
2023-05-12T08:45:47.339Z,6.45
2023-05-12T08:48:17.202Z,6.40
2023-05-12T08:50:44.993Z,6.65
2023-05-12T08:53:13.882Z,6.43
2023-05-12T08:55:58.413Z,6.28
2023-05-12T08:58:40.993Z,6.40
2023-05-12T09:01:12.363Z,6.25
2023-05-12T09:03:42.487Z,6.13
2023-05-12T09:06:11.646Z,5.95
2023-05-12T09:08:39.599Z,4.85
2023-05-12T09:11:08.809Z,5.47
2023-05-12T09:14:01.112Z,6.25
2023-05-12T09:16:31.633Z,5.63
2023-05-12T09:19:00.879Z,5.38
2023-05-12T09:21:28.796Z,5.50
2023-05-12T09:24:01.298Z,5.13
2023-05-12T09:26:29.164Z,5.25
2023-05-12T09:29:08.957Z,5.57
2023-05-12T09:31:36.582Z,5.20
2023-05-12T09:34:10.444Z,4.72
2023-05-12T09:36:37.675Z,5.05
2023-05-12T09:39:07.365Z,4.90
2023-05-12T09:41:38.799Z,5.72
2023-05-12T09:44:07.145Z,4.95
2023-05-12T09:46:35.209Z,4.80
2023-05-12T09:49:05.421Z,5.53
2023-05-12T09:51:32.681Z,5.78
2023-05-12T09:54:00.946Z,5.70
2023-05-12T09:56:31.520Z,4.72
2023-05-12T09:58:58.985Z,5.18
2023-05-12T10:01:27.267Z,4.88
2023-05-12T10:03:57.190Z,5.07
2023-05-12T10:06:30.678Z,5.07
2023-05-12T10:11:44.852Z,5.18
2023-05-12T10:14:13.594Z,4.55
2023-05-12T10:16:41.663Z,4.60
2023-05-12T10:19:09.764Z,5.28
2023-05-12T10:21:38.274Z,5.05
2023-05-12T10:24:05.692Z,4.53
2023-05-12T10:26:35.089Z,4.78
2023-05-12T10:29:02.477Z,4.18
2023-05-12T10:31:30.402Z,4.18
2023-05-12T10:34:02.025Z,4.40
2023-05-12T10:36:29.710Z,4.57
2023-05-12T10:39:05.826Z,4.25
2023-05-12T10:41:34.787Z,4.35
2023-05-12T10:44:01.782Z,4.68
2023-05-12T10:46:30.700Z,4.43
2023-05-12T10:49:07.001Z,3.78
2023-05-12T10:51:43.288Z,3.78
2023-05-12T10:54:12.678Z,3.92
2023-05-12T10:56:40.183Z,4.68
2023-05-12T10:59:28.896Z,4.80
2023-05-12T11:01:58.954Z,4.40
2023-05-12T11:04:56.137Z,4.88
2023-05-12T11:07:27.239Z,3.60
2023-05-12T11:09:59.263Z,3.75
2023-05-12T11:12:33.059Z,3.97
2023-05-12T11:15:01.710Z,3.92
2023-05-12T11:17:29.938Z,3.95
2023-05-12T11:19:57.120Z,4.15
2023-05-12T11:22:24.615Z,3.70
2023-05-12T11:24:53.114Z,4.05
2023-05-12T11:27:23.344Z,3.90
2023-05-12T11:29:58.677Z,4.07
2023-05-12T11:32:25.876Z,3.72
2023-05-12T11:34:53.310Z,4.30
2023-05-12T11:37:21.486Z,3.80
2023-05-12T11:39:48.892Z,3.90
2023-05-12T11:42:17.716Z,4.28
2023-05-12T11:44:50.648Z,4.28
2023-05-12T11:47:20.050Z,4.18
2023-05-12T11:49:58.215Z,3.58
2023-05-12T11:52:30.682Z,3.60
2023-05-12T11:55:01.078Z,3.50
2023-05-12T11:57:32.847Z,3.28
2023-05-12T12:00:02.424Z,3.28
2023-05-12T12:02:33.541Z,4.00
2023-05-12T12:05:03.466Z,3.35
2023-05-12T12:07:37.652Z,3.38
2023-05-12T12:10:18.520Z,3.40
2023-05-12T12:12:46.402Z,3.13
2023-05-12T12:15:15.868Z,3.53
2023-05-12T12:17:42.868Z,3.20
2023-05-12T12:20:13.286Z,3.50
2023-05-12T12:22:43.308Z,3.10
2023-05-12T12:25:10.269Z,2.80
2023-05-12T12:27:39.760Z,3.00
2023-05-12T12:30:07.467Z,2.83
2023-05-12T12:32:34.455Z,2.60
2023-05-12T12:35:06.844Z,2.60
2023-05-12T12:37:33.809Z,2.72
2023-05-12T12:40:08.074Z,3.08
2023-05-12T12:42:36.327Z,3.38
2023-05-12T12:45:05.222Z,3.20
2023-05-12T12:47:32.435Z,3.35
2023-05-12T12:49:59.998Z,2.90
2023-05-12T12:52:29.767Z,2.60
2023-05-12T12:54:57.581Z,2.97
2023-05-12T12:57:31.894Z,2.65
2023-05-12T12:59:58.812Z,3.05
2023-05-12T13:02:30.647Z,2.83
2023-05-12T13:04:57.796Z,3.03
2023-05-12T13:07:27.331Z,3.05
2023-05-12T13:09:54.400Z,2.92
2023-05-12T13:12:21.414Z,3.20
2023-05-12T13:14:48.457Z,2.97
2023-05-12T13:17:18.230Z,2.88
2023-05-12T13:19:45.198Z,2.97
2023-05-12T13:22:13.371Z,2.85
2023-05-12T13:24:40.338Z,2.80
2023-05-12T13:27:10.059Z,3.08
2023-05-12T13:29:37.334Z,3.05
2023-05-12T13:32:07.078Z,2.78
2023-05-12T13:34:34.090Z,2.60
2023-05-12T13:37:04.080Z,2.55
2023-05-12T13:39:33.411Z,2.67
2023-05-12T13:42:00.653Z,2.95
2023-05-12T13:44:31.267Z,3.00
2023-05-12T13:46:58.284Z,2.78
2023-05-12T13:49:31.241Z,2.55
2023-05-12T13:51:58.235Z,2.75
2023-05-12T13:54:25.476Z,2.78
2023-05-12T13:56:54.648Z,3.20
2023-05-12T13:59:21.752Z,2.88
2023-05-12T14:01:49.018Z,4.40
2023-05-12T14:04:16.500Z,3.00
2023-05-12T14:06:46.217Z,2.70
2023-05-12T14:09:14.395Z,3.17
2023-05-12T14:11:41.442Z,2.97
2023-05-12T14:14:08.474Z,3.25
2023-05-12T14:16:36.970Z,2.80
2023-05-12T14:19:04.147Z,2.97
2023-05-12T14:21:31.159Z,3.00
2023-05-12T14:23:58.204Z,2.53
2023-05-12T14:26:26.273Z,3.15
2023-05-12T14:28:53.405Z,3.40
2023-05-12T14:31:20.605Z,3.35
2023-05-12T14:33:47.648Z,2.92
2023-05-12T14:36:14.617Z,2.92
2023-05-12T14:38:42.875Z,2.85
2023-05-12T14:41:09.971Z,3.15
2023-05-12T14:43:37.334Z,3.20
2023-05-12T14:46:04.691Z,3.45
2023-05-12T14:48:32.050Z,3.15
2023-05-12T14:50:59.191Z,3.10
2023-05-12T14:53:26.364Z,3.00
2023-05-12T14:55:53.368Z,3.35
2023-05-12T14:58:22.332Z,2.97
2023-05-12T15:00:52.372Z,2.88
2023-05-12T15:03:21.625Z,3.45
2023-05-12T15:08:21.905Z,3.10
2023-05-12T15:10:49.174Z,3.30
2023-05-12T15:13:18.413Z,2.83
2023-05-12T15:15:45.820Z,3.03
2023-05-12T15:18:12.819Z,2.97
2023-05-12T15:20:39.980Z,2.85
2023-05-12T15:23:07.044Z,3.30
2023-05-12T15:25:34.149Z,3.40
2023-05-12T15:28:01.146Z,3.20
2023-05-12T15:30:28.209Z,2.90
2023-05-12T15:32:55.296Z,3.22
2023-05-12T15:35:22.925Z,2.65
2023-05-12T15:37:50.127Z,3.75
2023-05-12T15:40:17.437Z,3.20
2023-05-12T15:42:44.687Z,3.00
2023-05-12T15:45:11.784Z,2.72
2023-05-12T15:47:38.869Z,3.40
2023-05-12T15:50:06.594Z,3.35
2023-05-12T15:52:33.633Z,3.13
2023-05-12T15:55:01.155Z,2.97
2023-05-12T15:57:28.192Z,3.30
2023-05-12T15:59:59.082Z,2.78
2023-05-12T16:02:26.475Z,3.15
2023-05-12T16:04:53.641Z,2.75
2023-05-12T16:07:20.921Z,3.15
2023-05-12T16:09:47.924Z,3.13
2023-05-12T16:12:15.648Z,2.85
2023-05-12T16:14:42.671Z,3.17
2023-05-12T16:17:09.749Z,3.10
2023-05-12T16:19:36.745Z,2.60
2023-05-12T16:22:03.770Z,2.78
2023-05-12T16:24:30.700Z,2.90
2023-05-12T16:26:59.460Z,2.85
2023-05-12T16:29:26.949Z,3.45
2023-05-12T16:31:53.934Z,2.70
2023-05-12T16:34:21.343Z,3.13
2023-05-12T16:36:49.041Z,2.95
2023-05-12T16:39:16.091Z,3.10
2023-05-12T16:41:43.036Z,2.90
2023-05-12T16:44:10.143Z,2.85
2023-05-12T16:46:39.302Z,2.60
2023-05-12T16:49:07.701Z,2.88
2023-05-12T16:51:35.771Z,2.85
2023-05-12T16:54:02.733Z,3.00
2023-05-12T16:56:29.687Z,2.80
2023-05-12T16:58:56.741Z,2.80
2023-05-12T17:01:23.795Z,3.05
2023-05-12T17:03:51.217Z,2.90
2023-05-12T17:06:18.268Z,2.78
2023-05-12T17:08:45.309Z,2.42
2023-05-12T17:11:12.286Z,2.90
2023-05-12T17:13:39.340Z,2.80
2023-05-12T17:16:07.008Z,2.83
2023-05-12T17:19:13.671Z,3.45
2023-05-12T17:21:21.003Z,2.60
2023-05-12T17:23:48.466Z,3.00
2023-05-12T17:26:15.885Z,2.80
2023-05-12T17:28:43.305Z,2.58
2023-05-12T17:31:10.796Z,2.80
2023-05-12T17:33:37.850Z,2.60
2023-05-12T17:36:12.461Z,2.42
2023-05-12T17:38:41.105Z,3.25
2023-05-12T17:41:08.121Z,3.47
2023-05-12T17:43:35.100Z,2.92
2023-05-12T17:46:03.093Z,3.13
2023-05-12T17:48:33.457Z,3.20
2023-05-12T17:51:01.511Z,2.92
2023-05-12T17:53:29.185Z,3.35
2023-05-12T17:55:56.201Z,3.28
2023-05-12T17:58:23.575Z,2.90
2023-05-12T18:00:50.739Z,3.30
2023-05-12T18:03:23.505Z,3.30
2023-05-12T18:05:52.282Z,3.03
2023-05-12T18:08:19.310Z,3.08
2023-05-12T18:10:46.855Z,2.85
2023-05-12T18:13:14.880Z,2.30
2023-05-12T18:15:42.098Z,2.50
2023-05-12T18:18:10.304Z,2.50
2023-05-12T18:20:37.391Z,2.78
2023-05-12T18:23:04.499Z,2.30
2023-05-12T18:25:31.582Z,2.92
2023-05-12T18:27:58.567Z,2.92
2023-05-12T18:30:25.691Z,2.60
2023-05-12T18:32:52.903Z,2.50
2023-05-12T18:35:20.142Z,3.22
2023-05-12T18:37:47.362Z,4.38
2023-05-12T18:40:14.631Z,6.32
2023-05-12T18:42:41.712Z,9.80
2023-05-12T18:45:09.126Z,5.75
2023-05-12T18:47:36.229Z,3.38
2023-05-12T18:50:04.391Z,2.80
2023-05-12T18:52:31.453Z,2.70
2023-05-12T18:54:58.610Z,3.13
2023-05-12T18:57:25.755Z,3.30
2023-05-12T18:59:52.890Z,3.30
2023-05-12T19:02:19.932Z,3.20
2023-05-12T19:04:47.040Z,3.25
2023-05-12T19:07:15.637Z,3.47
2023-05-12T19:09:43.526Z,2.95
2023-05-12T19:12:13.409Z,3.20
2023-05-12T19:14:40.979Z,2.97
2023-05-12T19:17:08.047Z,2.85
2023-05-12T19:19:35.165Z,3.08
2023-05-12T19:22:04.256Z,3.03
2023-05-12T19:24:31.637Z,3.17
2023-05-12T19:26:58.725Z,2.90
2023-05-12T19:29:26.292Z,2.92
2023-05-12T19:31:53.839Z,3.47
2023-05-12T19:34:21.680Z,3.45
2023-05-12T19:36:48.783Z,4.00
2023-05-12T19:39:15.779Z,3.88
2023-05-12T19:41:42.974Z,3.58
2023-05-12T19:44:09.899Z,4.38
2023-05-12T19:46:37.018Z,5.25
2023-05-12T19:49:04.426Z,12.75
2023-05-12T19:51:32.177Z,11.25
2023-05-12T19:53:59.627Z,4.80
2023-05-12T19:56:27.311Z,4.03
2023-05-12T19:58:54.281Z,3.80
2023-05-12T20:01:21.478Z,3.97
2023-05-12T20:03:48.652Z,3.55
2023-05-12T20:06:15.778Z,3.60
2023-05-12T20:08:42.746Z,3.58
2023-05-12T20:11:09.903Z,3.42
2023-05-12T20:13:36.948Z,3.60
2023-05-12T20:16:04.299Z,4.10
2023-05-12T20:18:31.477Z,4.20
2023-05-12T20:20:58.524Z,3.97
2023-05-12T20:23:25.666Z,4.05
2023-05-12T20:25:53.414Z,4.18
2023-05-12T20:28:21.528Z,4.05
2023-05-12T20:30:48.528Z,4.18
2023-05-12T20:33:15.661Z,4.35
2023-05-12T20:35:42.634Z,3.80
2023-05-12T20:38:09.654Z,3.92
2023-05-12T20:40:36.627Z,3.75
2023-05-12T20:43:03.897Z,3.88
2023-05-12T20:45:30.893Z,4.03
2023-05-12T20:47:57.920Z,3.92
2023-05-12T20:50:27.013Z,3.78
2023-05-12T20:52:54.025Z,4.03
2023-05-12T20:55:21.259Z,4.30
2023-05-12T20:57:48.428Z,3.70
2023-05-12T21:00:15.815Z,4.32
2023-05-12T21:02:42.926Z,4.38
2023-05-12T21:05:10.444Z,4.43
2023-05-12T21:07:37.497Z,4.30
2023-05-12T21:10:04.889Z,4.80
2023-05-12T21:12:31.917Z,4.22
2023-05-12T21:14:58.957Z,5.15
2023-05-12T21:17:26.061Z,5.40
2023-05-12T21:19:53.074Z,5.50
2023-05-12T21:22:20.439Z,4.90
2023-05-12T21:24:47.803Z,4.78
2023-05-12T21:27:15.892Z,5.53
2023-05-12T21:29:43.011Z,5.20
2023-05-12T21:32:10.007Z,5.57
2023-05-12T21:34:37.094Z,6.15
2023-05-12T21:37:04.161Z,6.72
2023-05-12T21:39:31.334Z,6.45
2023-05-12T21:41:58.322Z,6.05
2023-05-12T21:44:25.513Z,5.50
2023-05-12T21:46:52.515Z,4.38
2023-05-12T21:49:19.589Z,4.90
2023-05-12T21:51:46.633Z,5.35
2023-05-12T21:54:13.638Z,5.47
2023-05-12T21:56:40.730Z,4.88
2023-05-12T21:59:07.718Z,5.15
2023-05-12T22:01:34.802Z,4.97
2023-05-12T22:04:01.965Z,5.05
2023-05-12T22:06:29.067Z,5.10
2023-05-12T22:08:56.138Z,5.15
2023-05-12T22:11:23.717Z,4.82
2023-05-12T22:13:51.284Z,5.18
2023-05-12T22:16:20.020Z,5.35
2023-05-12T22:18:51.043Z,4.95
2023-05-12T22:21:18.030Z,4.45
2023-05-12T22:23:45.077Z,4.53
2023-05-12T22:26:12.074Z,5.57
2023-05-12T22:28:39.076Z,4.78
2023-05-12T22:31:06.140Z,5.03
2023-05-12T22:33:34.751Z,4.80
2023-05-12T22:36:01.869Z,4.82
2023-05-12T22:38:28.862Z,4.40
2023-05-12T22:40:56.059Z,4.63
2023-05-12T22:43:23.039Z,4.78
2023-05-12T22:45:53.137Z,4.97
2023-05-12T22:48:20.402Z,4.45
2023-05-12T22:50:47.657Z,4.53
2023-05-12T22:53:15.007Z,4.72
2023-05-12T22:55:42.064Z,4.57
2023-05-12T22:58:10.468Z,4.25
2023-05-12T23:00:37.846Z,4.40
2023-05-12T23:03:05.069Z,4.25
2023-05-12T23:05:32.180Z,4.90
2023-05-12T23:07:59.164Z,4.82
2023-05-12T23:10:26.257Z,4.65
2023-05-12T23:12:53.261Z,4.93
2023-05-12T23:15:20.510Z,5.00
2023-05-12T23:17:47.654Z,5.18
2023-05-12T23:20:14.714Z,5.28
2023-05-12T23:22:41.698Z,5.00
2023-05-12T23:25:09.286Z,5.05
2023-05-12T23:27:37.220Z,5.18
2023-05-12T23:30:04.931Z,5.40
2023-05-12T23:32:32.303Z,5.03
2023-05-12T23:34:59.481Z,5.47
2023-05-12T23:37:26.881Z,4.80
2023-05-12T23:39:53.944Z,5.10
2023-05-12T23:42:21.353Z,5.40
2023-05-12T23:44:48.397Z,5.43
2023-05-12T23:47:15.405Z,5.30
2023-05-12T23:49:42.388Z,5.40
2023-05-12T23:52:09.443Z,4.90
2023-05-12T23:54:36.420Z,5.00
2023-05-12T23:57:03.771Z,5.13
2023-05-12T23:59:31.032Z,5.20
